x

Isle Of Shoals, Nh (iosn3) Weather Station

3:00 - Mon 23rd Jan 2017 All times are EST. -5 hours from GMT.

  • Wind
    34mph, 40mph gusts
  • Ar Temp 36°f
  • Sea Pressure 1014.5mb
  • Isle Of Shoals, Nh
  • Isle Of Shoals, Nh

More Historic Weather Station data

Upgrade to MSW Pro to gain access to the past 30 days of data for over 8000 Wavebouys and Weather Stations around the globe.

Join Pro

Comparision Forecast

View Surf forecast
   
Seg 01/23 3:00 34 40 mph 1014.5mb 36f
2:00 36 38 mph 1014.6mb 36f
1:00 29 33 mph 1016mb 33f
12:00 37 40 mph 1015.7mb 33f
11:00 31 34 mph 1017.1mb 33f
10:00 33 37 mph 1017.9mb 33f
9:00 31 36 mph 1017.5mb 34f
8:00 26 33 mph 1017.5mb 35f
7:00 28 32 mph 1017.5mb 33f
6:00 30 36 mph 1016.2mb 36f
5:00 31 36 mph 1015.9mb 35f
4:00 29 32 mph 1016.4mb 36f
3:00 33 36 mph 1015.6mb 37f
2:00 31 34 mph 1015.6mb 37f
1:00 30 34 mph 1015.4mb 37f
12:00 32 34 mph 1014.9mb 38f
Dom 01/22 11:00 32 34 mph 1015.1mb 38f
10:00 28 31 mph 1014.9mb 39f
9:00 23 26 mph 1014.5mb 40f
8:00 26 30 mph 1013.5mb 40f
7:00 26 30 mph 1013.3mb 40f
6:00 29 31 mph 1012.5mb 40f
5:00 29 32 mph 1011.9mb 40f
4:00 24 29 mph 1011.5mb 39f
3:00 22 24 mph 1011.2mb 38f
2:00 22 24 mph 1010.8mb 39f
1:00 22 25 mph 1010mb 39f
12:00 22 25 mph 1009.8mb 40f
11:00 23 28 mph 1009.6mb 40f
10:00 23 26 mph 1009.5mb 41f
9:00 18 21 mph 1009.1mb 42f
8:00 11 13 mph 1008.6mb 41f
7:00 8 9 mph 1008.7mb 40f
6:00 7
mph
1007.3mb 41f
5:00 8 9 mph 1006.7mb 43f
4:00 11 13 mph 1006.8mb 42f
3:00 11 13 mph 1007mb 44f
2:00 8 9 mph 1006.6mb 44f
1:00 7 8 mph 1006.6mb 45f
12:00 11
mph
1006.7mb 47f
Sáb 01/21 11:00 7 8 mph 1006.9mb 46f
10:00 9
mph
1007mb 46f
9:00 13 14 mph 1006.8mb 47f
8:00 8
mph
1006.8mb 46f
7:00 6
mph
1006.9mb 45f
6:00 2
mph
1006.8mb 45f
5:00 2
mph
1006.6mb 44f
4:00 1
mph
1006.2mb 44f
3:00 1 2 mph 1006mb 44f
2:00 6
mph
1006.5mb 42f
1:00 5
mph
1006.5mb 42f
12:00 6 7 mph 1007.7mb 41f
11:00 8 9 mph 1009mb 39f
10:00 9 10 mph 1009.5mb 39f
9:00 14 15 mph 1009.9mb 38f
8:00 15 16 mph 1010mb 39f
7:00 14 15 mph 1009.8mb 38f
6:00 18 20 mph 1010.3mb 38f
5:00 15 17 mph 1010.6mb 38f
4:00 14 15 mph 1011.4mb 39f
3:00 16 17 mph 1011.8mb 39f
2:00 16 17 mph 1012mb 40f
1:00 15 17 mph 1012.3mb 40f
12:00 11 13 mph 1012.7mb 40f
Sex 01/20 11:00 13 14 mph 1013.1mb 40f
10:00 14 15 mph 1013.4mb 41f
9:00 11 14 mph 1013.6mb 40f
8:00 11 13 mph 1014mb 40f
7:00 10 13 mph 1014.4mb 40f
6:00 10 11 mph 1014mb 40f
5:00 11 13 mph 1014.1mb 40f
4:00 10 13 mph 1014.4mb 40f
3:00 8 9 mph 1014.5mb 39f
2:00 9 10 mph 1014.5mb 39f
1:00 6 7 mph 1015mb 39f
12:00 7 8 mph 1015.8mb 38f
11:00 7 8 mph 1016.6mb 38f
10:00 8 10 mph 1017.1mb 38f
9:00 11 13 mph 1016.6mb 38f
8:00 11 14 mph 1016.5mb 38f
7:00 10 11 mph 1016.3mb 38f
6:00 10 11 mph 1016.1mb 38f
5:00 9 10 mph 1016.3mb 38f
4:00 10 11 mph 1016mb 38f
3:00 10 11 mph 1015.7mb 39f
2:00 13 15 mph 1015mb 39f
1:00 9 10 mph 1015mb 38f
12:00 14 15 mph 1015.6mb 38f
Qui 01/19 11:00 14 15 mph 1016.5mb 38f
10:00 15 16 mph 1016.4mb 38f